Time;durP1;ratioP1;P1;durP2;ratioP2;P2;SDS_P1;SDS_P2;PMS_P1;PMS_P2;Temp;Humidity;BMP_temperature;BMP_pressure;BME280_temperature;BME280_humidity;BME280_pressure;Samples;Min_cycle;Max_cycle;Signal;HPM_P1;HPM_P2
2021/09/15 00:01:24;;;;;;;58.40;2.70;;;20.00;1.00;;;;;;5015121;28;20843;-72
2021/09/15 00:03:51;;;;;;;58.00;2.80;;;20.00;1.00;;;;;;5014840;28;20491;-71
2021/09/15 00:06:18;;;;;;;59.63;2.97;;;20.00;1.00;;;;;;5015225;28;20503;-71
2021/09/15 00:08:45;;;;;;;58.17;2.60;;;20.10;1.00;;;;;;5015088;28;20452;-71
2021/09/15 00:11:13;;;;;;;58.57;3.00;;;20.00;1.00;;;;;;5014982;28;20573;-71
2021/09/15 00:13:40;;;;;;;58.50;2.60;;;20.00;1.00;;;;;;5015181;28;20497;-71
2021/09/15 00:16:07;;;;;;;58.30;2.80;;;20.00;1.00;;;;;;5014163;28;20455;-71
2021/09/15 00:18:34;;;;;;;58.07;3.50;;;20.00;1.00;;;;;;5015298;28;20539;-71
2021/09/15 00:21:01;;;;;;;60.27;4.23;;;20.00;1.00;;;;;;5013762;28;20461;-71
2021/09/15 00:23:28;;;;;;;57.97;2.50;;;19.90;1.00;;;;;;5015135;28;20544;-71
2021/09/15 00:25:54;;;;;;;59.07;3.27;;;19.90;1.00;;;;;;5014146;28;20935;-71
2021/09/15 00:28:23;;;;;;;57.97;2.50;;;19.90;1.00;;;;;;5014450;28;20456;-71
2021/09/15 00:30:50;;;;;;;58.30;2.80;;;19.90;1.00;;;;;;5014063;28;21028;-71
2021/09/15 00:33:17;;;;;;;57.77;2.50;;;19.90;1.00;;;;;;5014760;28;20489;-71
2021/09/15 00:35:44;;;;;;;58.07;2.60;;;19.90;1.00;;;;;;5014236;28;20449;-71
2021/09/15 00:38:11;;;;;;;58.17;2.90;;;19.90;1.00;;;;;;5014337;28;20468;-72
2021/09/15 00:40:38;;;;;;;59.37;2.63;;;19.90;1.00;;;;;;5014867;28;20466;-71
2021/09/15 00:43:04;;;;;;;58.07;2.40;;;19.90;1.00;;;;;;5014213;28;20456;-71
2021/09/15 00:45:33;;;;;;;58.90;3.40;;;20.00;1.00;;;;;;5014004;28;20457;-71
2021/09/15 00:48:00;;;;;;;58.23;2.40;;;19.90;1.00;;;;;;5014337;28;20473;-71
2021/09/15 00:50:27;;;;;;;58.90;3.07;;;20.00;1.00;;;;;;5013927;28;20580;-72
2021/09/15 00:52:53;;;;;;;57.87;2.60;;;20.00;1.00;;;;;;5014850;28;21015;-71
2021/09/15 00:55:20;;;;;;;58.13;3.10;;;19.90;1.00;;;;;;5012247;28;20451;-71
2021/09/15 00:57:47;;;;;;;58.53;3.17;;;19.90;1.00;;;;;;5013721;28;20561;-71
2021/09/15 01:00:15;;;;;;;59.70;3.30;;;19.90;1.00;;;;;;5014165;28;20932;-71
2021/09/15 01:02:43;;;;;;;57.87;2.77;;;19.90;1.00;;;;;;5013828;28;20943;-71
2021/09/15 01:05:10;;;;;;;59.00;3.40;;;19.90;1.00;;;;;;5014017;28;20537;-71
2021/09/15 01:07:37;;;;;;;59.10;3.43;;;19.80;1.00;;;;;;5014142;28;20503;-71
2021/09/15 01:10:05;;;;;;;58.50;3.10;;;19.80;1.00;;;;;;5013860;28;20486;-71
2021/09/15 01:12:33;;;;;;;58.27;2.77;;;19.80;1.00;;;;;;5011764;28;20956;-71
2021/09/15 01:15:00;;;;;;;58.20;2.70;;;19.80;1.00;;;;;;5014163;28;20449;-72
2021/09/15 01:17:27;;;;;;;58.60;3.10;;;19.80;1.00;;;;;;5012977;28;20892;-72
2021/09/15 01:19:57;;;;;;;58.60;3.30;;;19.80;1.00;;;;;;5013870;28;20459;-72
2021/09/15 01:22:25;;;;;;;58.40;2.90;;;19.80;2.70;;;;;;5013765;28;20812;-72
2021/09/15 01:24:52;;;;;;;58.60;2.73;;;19.80;3.70;;;;;;5013921;28;20465;-72
2021/09/15 01:27:19;;;;;;;58.20;2.30;;;19.80;5.80;;;;;;5022853;28;20474;-72
2021/09/15 01:29:46;;;;;;;58.50;2.90;;;19.70;7.70;;;;;;5033178;28;20464;-72
2021/09/15 01:32:15;;;;;;;58.60;3.43;;;19.70;9.40;;;;;;5032727;28;20533;-72
2021/09/15 01:34:44;;;;;;;59.13;3.30;;;19.70;11.10;;;;;;5033050;28;20541;-72
2021/09/15 01:37:12;;;;;;;58.60;3.00;;;19.60;13.60;;;;;;5032444;28;20479;-72
2021/09/15 01:39:41;;;;;;;58.60;2.97;;;19.60;16.00;;;;;;5033353;28;20536;-72
2021/09/15 01:42:10;;;;;;;58.27;2.50;;;19.60;17.60;;;;;;5033203;28;20832;-72
2021/09/15 01:44:38;;;;;;;58.60;3.37;;;19.60;18.80;;;;;;5033164;28;20962;-72
2021/09/15 01:47:06;;;;;;;58.43;3.00;;;19.60;20.20;;;;;;5032802;28;21002;-72
2021/09/15 01:49:35;;;;;;;58.03;2.70;;;19.60;19.90;;;;;;5032725;28;21013;-72
2021/09/15 01:52:04;;;;;;;58.03;2.50;;;19.60;20.50;;;;;;5032844;28;20577;-72
2021/09/15 01:54:32;;;;;;;58.60;2.60;;;19.60;20.00;;;;;;5032883;28;21009;-72
2021/09/15 01:57:00;;;;;;;58.57;3.00;;;19.60;18.90;;;;;;5032348;28;20563;-72
2021/09/15 01:59:27;;;;;;;59.20;3.50;;;19.60;18.50;;;;;;5028935;28;20452;-72
2021/09/15 02:01:54;;;;;;;58.00;3.00;;;19.60;18.70;;;;;;5012677;28;20537;-72
2021/09/15 02:04:21;;;;;;;58.17;2.40;;;19.60;18.80;;;;;;5013127;28;20534;-72
2021/09/15 02:06:48;;;;;;;58.77;2.80;;;19.60;19.20;;;;;;5012601;28;20477;-72
2021/09/15 02:09:15;;;;;;;58.20;3.33;;;19.60;20.80;;;;;;5012206;28;20450;-72
2021/09/15 02:11:42;;;;;;;58.20;2.60;;;19.50;22.10;;;;;;5012636;28;20582;-72
2021/09/15 02:14:10;;;;;;;58.60;3.27;;;19.50;23.20;;;;;;5012503;28;20454;-72
2021/09/15 02:16:38;;;;;;;58.80;3.30;;;19.50;24.30;;;;;;5011810;28;20477;-72
2021/09/15 02:19:05;;;;;;;57.77;2.50;;;19.40;25.60;;;;;;5013430;28;20542;-72
2021/09/15 02:21:32;;;;;;;58.37;3.30;;;19.40;27.80;;;;;;5012439;28;20443;-72
2021/09/15 02:24:00;;;;;;;58.07;3.00;;;19.40;27.90;;;;;;5012530;28;20453;-72
2021/09/15 02:26:28;;;;;;;58.33;2.90;;;19.40;29.20;;;;;;5012462;28;20559;-72
2021/09/15 02:28:55;;;;;;;58.07;2.50;;;19.40;31.70;;;;;;5012151;28;20462;-72
2021/09/15 02:31:23;;;;;;;58.60;3.00;;;19.30;32.90;;;;;;5012715;28;20492;-72
2021/09/15 02:33:50;;;;;;;58.40;2.90;;;19.30;34.70;;;;;;5010945;28;20462;-72
2021/09/15 02:36:17;;;;;;;58.40;2.60;;;19.40;36.20;;;;;;5011700;28;20476;-72
2021/09/15 02:38:44;;;;;;;58.30;3.10;;;19.40;37.70;;;;;;5012040;28;20565;-72
2021/09/15 02:41:11;;;;;;;58.47;2.70;;;19.30;37.60;;;;;;5012272;28;20546;-72
2021/09/15 02:43:38;;;;;;;57.97;2.90;;;19.30;38.10;;;;;;5012117;28;20459;-72
2021/09/15 02:46:05;;;;;;;59.20;3.10;;;19.30;38.60;;;;;;5011725;28;20968;-72
2021/09/15 02:48:33;;;;;;;58.40;3.00;;;19.30;38.70;;;;;;5012261;28;20956;-72
2021/09/15 02:51:00;;;;;;;57.67;2.70;;;19.30;38.80;;;;;;5012460;28;20570;-72
2021/09/15 02:53:27;;;;;;;58.47;2.80;;;19.30;39.00;;;;;;5012334;28;20833;-72
2021/09/15 02:55:53;;;;;;;58.20;3.03;;;19.30;38.80;;;;;;5011406;28;20825;-72
2021/09/15 02:58:20;;;;;;;57.83;2.53;;;19.30;38.10;;;;;;5011679;28;20482;-72
2021/09/15 03:00:47;;;;;;;58.80;3.77;;;19.30;38.40;;;;;;5012039;28;20447;-72
2021/09/15 03:03:14;;;;;;;58.27;2.90;;;19.30;37.70;;;;;;5012053;28;20462;-72
2021/09/15 03:05:42;;;;;;;58.17;2.60;;;19.30;36.90;;;;;;5010406;28;20481;-72
2021/09/15 03:08:09;;;;;;;58.03;2.50;;;19.30;37.00;;;;;;5011650;28;20554;-72
2021/09/15 03:10:36;;;;;;;58.30;3.37;;;19.30;36.80;;;;;;5011566;28;20474;-72
2021/09/15 03:13:03;;;;;;;57.60;2.80;;;19.30;36.80;;;;;;5012135;28;20478;-72
2021/09/15 03:15:30;;;;;;;58.37;2.60;;;19.30;35.60;;;;;;5011223;28;20455;-72
2021/09/15 03:17:57;;;;;;;58.07;2.67;;;19.30;34.70;;;;;;5011333;28;20471;-72
2021/09/15 03:20:24;;;;;;;58.17;3.33;;;19.30;34.40;;;;;;5011035;28;20444;-72
2021/09/15 03:22:52;;;;;;;59.00;3.83;;;19.30;34.20;;;;;;5011555;28;20450;-72
2021/09/15 03:25:19;;;;;;;57.87;2.80;;;19.30;34.30;;;;;;5011532;28;20474;-72
2021/09/15 03:27:46;;;;;;;58.50;3.10;;;19.30;35.10;;;;;;5011666;28;20468;-72
2021/09/15 03:30:13;;;;;;;58.70;3.10;;;19.30;34.60;;;;;;5011323;28;20468;-72
2021/09/15 03:32:40;;;;;;;58.00;3.23;;;19.30;34.10;;;;;;5011808;28;20521;-72
2021/09/15 03:35:08;;;;;;;57.80;2.90;;;19.30;34.20;;;;;;5011253;28;20899;-72
2021/09/15 03:37:35;;;;;;;58.60;2.80;;;19.30;33.60;;;;;;5015385;28;20474;-72
2021/09/15 03:40:04;;;;;;;58.63;3.70;;;19.30;33.40;;;;;;5030749;28;20545;-72
2021/09/15 03:42:31;;;;;;;58.57;3.33;;;19.30;33.60;;;;;;5030982;28;20452;-72
2021/09/15 03:44:57;;;;;;;58.30;3.07;;;19.40;32.60;;;;;;5031318;28;20731;-72
2021/09/15 03:47:24;;;;;;;57.97;2.70;;;19.40;32.20;;;;;;5030585;28;20513;-72
2021/09/15 03:49:51;;;;;;;58.37;2.40;;;19.40;31.00;;;;;;5030868;28;20457;-72
2021/09/15 03:52:18;;;;;;;58.80;4.03;;;19.40;31.10;;;;;;5030963;28;20568;-72
2021/09/15 03:54:45;;;;;;;58.67;3.17;;;19.40;31.70;;;;;;5031257;28;20454;-72
2021/09/15 03:57:13;;;;;;;58.97;3.80;;;19.40;31.00;;;;;;5030851;28;20557;-72
2021/09/15 03:59:40;;;;;;;58.07;2.80;;;19.40;32.10;;;;;;5030647;28;20456;-72
2021/09/15 04:02:07;;;;;;;58.27;2.80;;;19.40;33.50;;;;;;5031078;28;20460;-73
2021/09/15 04:04:34;;;;;;;57.93;2.43;;;19.30;34.80;;;;;;5031264;28;20536;-72
2021/09/15 04:07:01;;;;;;;58.03;2.77;;;19.30;35.50;;;;;;5030367;28;20984;-73
2021/09/15 04:09:27;;;;;;;58.27;2.90;;;19.30;36.90;;;;;;5027819;28;20537;-73
2021/09/15 04:11:54;;;;;;;58.10;2.80;;;19.30;37.30;;;;;;5010940;28;20584;-73
2021/09/15 04:14:25;;;;;;;58.40;3.00;;;19.30;38.40;;;;;;5011015;28;20458;-72
2021/09/15 04:16:52;;;;;;;58.40;3.50;;;19.20;39.60;;;;;;5010836;28;20485;-72
2021/09/15 04:19:18;;;;;;;57.57;2.50;;;19.20;42.50;;;;;;5010713;28;20456;-73
2021/09/15 04:21:45;;;;;;;58.70;2.90;;;19.20;45.20;;;;;;5011011;28;20538;-73
2021/09/15 04:32:32;;;;;;;57.97;2.40;;;19.10;51.10;;;;;;5013042;28;20621;-72
2021/09/15 04:34:59;;;;;;;58.47;2.77;;;19.10;53.30;;;;;;5014991;28;20486;-73
2021/09/15 04:37:26;;;;;;;57.87;2.70;;;19.10;54.30;;;;;;5014332;28;20474;-72
2021/09/15 04:39:53;;;;;;;59.20;3.53;;;19.10;55.00;;;;;;5014119;28;20459;-72
2021/09/15 04:42:20;;;;;;;58.20;2.97;;;19.10;56.90;;;;;;5013577;28;20453;-72
2021/09/15 04:44:48;;;;;;;58.70;2.80;;;19.10;58.30;;;;;;5014560;28;20513;-72
2021/09/15 04:47:15;;;;;;;58.90;3.57;;;19.10;60.10;;;;;;5013925;28;20469;-72
2021/09/15 04:49:42;;;;;;;58.50;2.67;;;19.10;60.20;;;;;;5014571;28;20454;-72
2021/09/15 04:52:08;;;;;;;58.00;2.70;;;19.10;62.10;;;;;;5014146;28;20580;-72
2021/09/15 04:54:35;;;;;;;58.20;2.80;;;19.10;62.80;;;;;;5014163;28;20485;-72
2021/09/15 04:57:02;;;;;;;58.47;3.30;;;19.10;63.30;;;;;;5013763;28;20481;-72
2021/09/15 04:59:29;;;;;;;58.30;2.70;;;19.10;64.20;;;;;;5013960;28;20456;-73
2021/09/15 05:01:57;;;;;;;58.60;3.30;;;19.10;64.90;;;;;;5014620;28;20898;-72
2021/09/15 05:04:24;;;;;;;58.70;3.43;;;19.10;66.10;;;;;;5014069;28;20452;-72
2021/09/15 05:06:52;;;;;;;58.17;2.80;;;19.10;66.20;;;;;;5013728;28;20470;-72
2021/09/15 05:09:19;;;;;;;58.00;2.60;;;19.10;66.90;;;;;;5014158;28;20484;-73
2021/09/15 05:11:46;;;;;;;58.17;2.50;;;19.10;68.40;;;;;;5014051;28;20526;-73
2021/09/15 05:14:13;;;;;;;58.47;3.23;;;19.10;68.10;;;;;;5012668;28;20986;-73
2021/09/15 05:16:40;;;;;;;58.17;3.20;;;19.10;69.10;;;;;;5013416;28;20502;-73
2021/09/15 05:19:08;;;;;;;57.87;2.53;;;19.10;71.10;;;;;;5013270;28;20858;-73
2021/09/15 05:21:35;;;;;;;58.47;3.10;;;19.10;71.40;;;;;;5013908;28;20528;-73
2021/09/15 05:24:02;;;;;;;58.90;3.30;;;19.10;71.80;;;;;;5013587;28;20482;-73
2021/09/15 05:26:28;;;;;;;58.30;3.30;;;19.10;72.00;;;;;;5013327;28;20474;-73
2021/09/15 05:28:55;;;;;;;59.17;4.40;;;19.10;72.00;;;;;;5013671;28;20464;-73
2021/09/15 05:31:22;;;;;;;57.63;3.00;;;19.10;72.50;;;;;;5013511;28;20450;-73
2021/09/15 05:33:49;;;;;;;58.53;3.10;;;19.10;72.60;;;;;;5014206;28;20442;-73
2021/09/15 05:36:17;;;;;;;57.93;2.63;;;19.10;72.60;;;;;;5013103;28;20474;-73
2021/09/15 05:38:44;;;;;;;58.03;2.60;;;19.10;73.10;;;;;;5013215;28;20885;-73
2021/09/15 05:41:11;;;;;;;57.77;2.80;;;19.10;73.00;;;;;;5013154;28;20464;-73
2021/09/15 05:43:38;;;;;;;58.30;2.70;;;19.10;73.60;;;;;;5012788;28;20907;-73
2021/09/15 05:46:05;;;;;;;58.17;3.00;;;19.10;73.60;;;;;;5013386;28;20548;-73
2021/09/15 05:48:32;;;;;;;58.10;2.80;;;19.10;73.90;;;;;;5028608;28;20536;-73
2021/09/15 05:50:59;;;;;;;58.50;2.80;;;19.10;74.10;;;;;;5032945;28;20469;-73
2021/09/15 05:53:27;;;;;;;58.27;2.90;;;19.10;74.70;;;;;;5032941;28;20591;-73
2021/09/15 05:55:54;;;;;;;58.90;4.03;;;19.10;74.50;;;;;;5032647;28;20532;-73
2021/09/15 05:58:21;;;;;;;58.27;2.90;;;19.10;74.20;;;;;;5033117;28;20880;-73
2021/09/15 06:00:48;;;;;;;58.60;3.37;;;19.10;74.20;;;;;;5032213;28;20453;-73
2021/09/15 06:03:14;;;;;;;57.87;2.60;;;19.10;74.60;;;;;;5032985;28;20870;-73
2021/09/15 06:05:41;;;;;;;58.80;3.43;;;19.10;74.80;;;;;;5032383;28;20548;-73
2021/09/15 06:08:08;;;;;;;58.10;2.90;;;19.20;74.90;;;;;;5032536;28;20553;-73
2021/09/15 06:10:36;;;;;;;58.00;2.90;;;19.20;74.90;;;;;;5032557;28;20951;-73
2021/09/15 06:13:03;;;;;;;58.73;3.47;;;19.10;75.00;;;;;;5032474;28;20510;-73
2021/09/15 06:15:30;;;;;;;58.17;2.80;;;19.10;74.80;;;;;;5032266;28;20862;-73
2021/09/15 06:17:57;;;;;;;58.50;3.20;;;19.10;74.50;;;;;;5032703;28;20465;-73
2021/09/15 06:20:24;;;;;;;58.27;2.93;;;19.10;74.80;;;;;;5029585;28;20450;-73
2021/09/15 06:22:51;;;;;;;58.30;2.97;;;19.10;75.00;;;;;;5032350;28;20536;-73
2021/09/15 06:25:20;;;;;;;58.37;3.37;;;19.10;75.80;;;;;;5032425;28;20474;-73
2021/09/15 06:27:49;;;;;;;58.40;2.93;;;19.10;76.50;;;;;;5032153;28;20473;-73
2021/09/15 06:30:16;;;;;;;57.93;2.50;;;19.10;77.40;;;;;;5031998;28;20465;-73
2021/09/15 06:32:43;;;;;;;58.87;2.70;;;19.10;77.30;;;;;;5031880;28;20551;-73
2021/09/15 06:35:12;;;;;;;57.93;2.70;;;19.20;77.30;;;;;;4995275;28;20461;-73
2021/09/15 06:37:39;;;;;;;58.13;2.63;;;19.20;77.20;;;;;;4992822;28;20848;-73
2021/09/15 06:40:08;;;;;;;58.30;3.53;;;19.20;77.30;;;;;;4992811;28;20448;-73
2021/09/15 06:42:35;;;;;;;58.10;2.90;;;19.20;77.40;;;;;;4992721;28;20898;-73
2021/09/15 06:45:03;;;;;;;58.17;2.83;;;19.20;77.40;;;;;;4992954;28;20459;-73
2021/09/15 06:47:30;;;;;;;57.97;2.80;;;19.20;77.70;;;;;;4992558;28;20979;-73
2021/09/15 06:49:57;;;;;;;57.90;2.83;;;19.20;77.40;;;;;;4992697;28;20455;-73
2021/09/15 06:52:24;;;;;;;58.50;3.07;;;19.20;77.80;;;;;;5011232;28;20582;-74
2021/09/15 06:54:51;;;;;;;58.60;3.10;;;19.20;80.10;;;;;;5011777;28;20966;-73
2021/09/15 06:57:18;;;;;;;57.87;2.57;;;19.20;81.00;;;;;;5011617;28;20501;-73
2021/09/15 06:59:44;;;;;;;58.30;3.17;;;19.20;81.40;;;;;;5012226;28;20497;-73
2021/09/15 07:02:13;;;;;;;58.60;2.93;;;19.20;81.70;;;;;;5011253;28;21053;-73
2021/09/15 07:04:39;;;;;;;57.80;2.60;;;19.20;82.50;;;;;;5011982;28;20486;-72
2021/09/15 07:07:06;;;;;;;58.77;3.00;;;19.20;83.60;;;;;;5010967;28;20516;-73
2021/09/15 07:09:34;;;;;;;58.37;3.43;;;19.20;83.70;;;;;;5010728;28;20534;-73
2021/09/15 07:12:00;;;;;;;58.00;2.83;;;19.20;82.90;;;;;;5011936;28;21021;-73
2021/09/15 07:14:28;;;;;;;58.03;2.80;;;19.20;82.80;;;;;;5011642;28;21046;-73
2021/09/15 07:16:55;;;;;;;58.20;2.50;;;19.20;81.80;;;;;;5011632;28;20468;-74
2021/09/15 07:19:23;;;;;;;57.73;2.77;;;19.20;81.30;;;;;;5012273;28;20545;-73
2021/09/15 07:21:50;;;;;;;58.17;3.37;;;19.20;81.40;;;;;;5012233;28;20460;-73
2021/09/15 07:24:17;;;;;;;57.80;2.90;;;19.20;81.40;;;;;;5009905;28;20537;-73
2021/09/15 07:26:44;;;;;;;59.07;4.00;;;19.20;81.20;;;;;;5011018;28;20567;-73
2021/09/15 07:29:11;;;;;;;57.97;2.40;;;19.20;80.70;;;;;;5011587;28;20454;-73
2021/09/15 07:31:38;;;;;;;58.80;3.13;;;19.20;80.30;;;;;;5011732;28;20533;-73
2021/09/15 07:34:05;;;;;;;57.87;2.70;;;19.20;81.30;;;;;;5011527;28;20490;-73
2021/09/15 07:36:34;;;;;;;58.00;2.90;;;19.20;82.80;;;;;;5011324;28;20558;-73
2021/09/15 07:39:01;;;;;;;58.00;2.60;;;19.20;84.80;;;;;;5011624;28;20538;-73
2021/09/15 07:41:29;;;;;;;57.57;2.43;;;19.20;86.10;;;;;;5011270;28;20597;-73
2021/09/15 07:43:56;;;;;;;58.30;2.90;;;19.10;87.10;;;;;;5011479;28;20538;-73
2021/09/15 07:46:23;;;;;;;58.07;3.60;;;19.10;87.20;;;;;;5011084;28;20558;-73
2021/09/15 07:48:49;;;;;;;58.13;2.80;;;19.10;86.80;;;;;;5011587;28;20478;-73
2021/09/15 07:51:17;;;;;;;57.63;2.50;;;19.20;85.80;;;;;;5011501;28;20538;-73
2021/09/15 07:53:45;;;;;;;57.57;2.50;;;19.20;85.90;;;;;;5009913;28;21007;-73
2021/09/15 07:56:13;;;;;;;58.40;2.80;;;19.30;86.20;;;;;;5010771;28;20653;-73
2021/09/15 07:58:40;;;;;;;57.57;2.43;;;19.30;86.90;;;;;;5011393;28;20485;-73
2021/09/15 08:01:07;;;;;;;58.27;2.90;;;19.30;87.20;;;;;;5011732;28;20552;-73
2021/09/15 08:03:34;;;;;;;58.60;3.00;;;19.30;86.40;;;;;;5010836;28;20458;-73
2021/09/15 08:06:02;;;;;;;58.40;2.97;;;19.40;85.20;;;;;;5010798;28;20479;-73
2021/09/15 08:08:29;;;;;;;58.03;2.67;;;19.40;83.90;;;;;;5014857;28;20461;-73
2021/09/15 08:10:57;;;;;;;58.07;2.60;;;19.50;81.80;;;;;;5015046;28;20547;-73
2021/09/15 08:13:25;;;;;;;57.90;2.67;;;19.50;80.90;;;;;;5015070;28;20577;-73
2021/09/15 08:15:52;;;;;;;58.00;2.50;;;19.50;80.60;;;;;;5014776;28;20461;-73
2021/09/15 08:18:18;;;;;;;59.37;3.57;;;19.50;81.10;;;;;;5015071;28;20557;-73
2021/09/15 08:20:46;;;;;;;57.97;2.30;;;19.50;81.50;;;;;;5015364;28;20485;-73
2021/09/15 08:23:13;;;;;;;58.97;3.33;;;19.60;81.40;;;;;;5014416;28;20454;-73
2021/09/15 08:25:40;;;;;;;57.80;2.60;;;19.60;81.20;;;;;;5013552;28;20559;-73
2021/09/15 08:28:08;;;;;;;57.90;2.50;;;19.50;81.60;;;;;;5014586;28;20563;-73
2021/09/15 08:30:35;;;;;;;57.87;2.50;;;19.50;83.30;;;;;;5015098;28;20463;-73
2021/09/15 08:33:03;;;;;;;58.50;3.57;;;19.60;83.60;;;;;;5015231;28;20581;-73
2021/09/15 08:35:30;;;;;;;58.50;3.10;;;19.60;83.30;;;;;;5014519;28;20455;-73
2021/09/15 08:37:58;;;;;;;57.93;2.60;;;19.60;83.00;;;;;;5014773;28;20547;-73
2021/09/15 08:40:25;;;;;;;57.70;2.87;;;19.70;82.10;;;;;;5015275;28;20538;-73
2021/09/15 08:42:52;;;;;;;57.60;2.60;;;19.70;80.20;;;;;;5014650;28;20490;-73
2021/09/15 08:45:23;;;;;;;58.70;2.80;;;19.70;75.70;;;;;;5015051;28;20542;-73
2021/09/15 08:47:52;;;;;;;58.10;2.77;;;19.60;74.90;;;;;;5014844;28;20501;-73
2021/09/15 08:50:19;;;;;;;57.77;2.63;;;19.50;74.50;;;;;;5014778;28;20546;-73
2021/09/15 08:52:46;;;;;;;58.10;2.40;;;19.50;74.30;;;;;;5015024;28;20914;-73
2021/09/15 08:55:13;;;;;;;57.70;2.70;;;19.50;74.50;;;;;;5014605;28;20452;-73
2021/09/15 08:57:40;;;;;;;57.97;2.90;;;19.50;75.20;;;;;;5014360;28;20465;-73
2021/09/15 09:00:09;;;;;;;57.97;2.40;;;19.40;75.10;;;;;;5015049;28;20478;-73
2021/09/15 09:02:39;;;;;;;58.00;2.90;;;19.40;74.70;;;;;;5013221;28;20543;-73
2021/09/15 09:05:07;;;;;;;57.73;2.50;;;19.30;73.90;;;;;;5014136;28;20460;-73
2021/09/15 09:07:35;;;;;;;58.13;2.57;;;19.30;71.30;;;;;;5013858;28;20468;-73
2021/09/15 09:10:06;;;;;;;58.07;2.80;;;19.10;68.90;;;;;;5014731;28;20906;-73
2021/09/15 09:12:33;;;;;;;58.40;2.90;;;19.00;69.10;;;;;;5014777;28;20511;-72
2021/09/15 09:15:16;;;;;;;58.40;3.00;;;19.00;71.20;;;;;;5014283;28;20549;-72
2021/09/15 09:17:45;;;;;;;58.30;2.80;;;18.90;73.00;;;;;;5013780;28;20466;-72
2021/09/15 09:20:14;;;;;;;57.90;2.50;;;18.90;74.30;;;;;;5014145;28;20545;-73
2021/09/15 09:23:00;;;;;;;58.03;2.60;;;18.90;74.80;;;;;;5014274;28;20881;-72
2021/09/15 09:25:28;;;;;;;58.27;2.67;;;18.90;75.40;;;;;;5013693;28;20458;-72
2021/09/15 09:27:55;;;;;;;58.07;2.90;;;18.80;75.70;;;;;;5013663;28;20809;-72
2021/09/15 09:30:34;;;;;;;58.00;2.83;;;18.80;76.70;;;;;;5014198;28;20460;-72
2021/09/15 09:33:03;;;;;;;57.77;2.50;;;18.70;77.10;;;;;;5012514;28;20577;-72
2021/09/15 09:35:44;;;;;;;58.30;3.20;;;18.70;77.10;;;;;;5012746;28;20534;-69
2021/09/15 09:38:26;;;;;;;58.23;2.60;;;18.70;76.30;;;;;;5013744;28;20465;-69
2021/09/15 09:40:59;;;;;;;57.97;2.70;;;18.60;67.40;;;;;;5014360;28;21022;-70
2021/09/15 09:43:26;;;;;;;58.97;2.90;;;18.60;65.70;;;;;;5013197;28;20453;-70
2021/09/15 09:45:53;;;;;;;58.27;2.50;;;18.60;64.60;;;;;;5012669;28;20540;-70
2021/09/15 09:48:42;;;;;;;58.17;2.70;;;18.50;61.60;;;;;;5013535;28;20544;-69
2021/09/15 09:51:30;;;;;;;57.97;2.70;;;18.50;60.30;;;;;;5014113;28;20492;-70
2021/09/15 09:54:14;;;;;;;57.80;2.73;;;18.40;59.40;;;;;;5013766;28;20492;-69
2021/09/15 09:56:43;;;;;;;58.20;2.80;;;18.40;61.40;;;;;;5013202;28;20568;-70
2021/09/15 09:59:11;;;;;;;58.20;2.60;;;18.40;62.40;;;;;;5013837;28;20814;-70
2021/09/15 10:01:41;;;;;;;58.47;2.73;;;18.50;63.50;;;;;;5014161;28;20484;-69
2021/09/15 10:04:09;;;;;;;57.57;2.50;;;18.50;66.60;;;;;;5012963;28;20450;-69
2021/09/15 10:06:38;;;;;;;58.27;3.00;;;18.60;66.70;;;;;;5032588;28;20733;-70
2021/09/15 10:09:05;;;;;;;57.87;2.57;;;18.60;66.70;;;;;;5033699;28;20453;-70
2021/09/15 10:11:32;;;;;;;58.20;2.70;;;18.70;67.10;;;;;;5033581;28;20554;-70
2021/09/15 10:14:01;;;;;;;58.27;2.80;;;18.90;68.90;;;;;;5035907;28;20571;-70
2021/09/15 10:16:29;;;;;;;57.87;3.07;;;19.10;70.10;;;;;;5037213;28;20502;-70
2021/09/15 10:19:00;;;;;;;58.07;2.80;;;19.30;70.80;;;;;;5036379;28;20532;-70
2021/09/15 10:21:31;;;;;;;57.90;2.60;;;19.40;70.50;;;;;;5038279;28;20449;-72
2021/09/15 10:23:58;;;;;;;57.43;2.30;;;19.70;59.50;;;;;;5040866;28;20433;-72
2021/09/15 10:26:30;;;;;;;57.97;2.70;;;19.90;60.10;;;;;;5024239;28;20476;-72
2021/09/15 10:29:16;;;;;;;57.73;2.77;;;20.10;61.10;;;;;;5019836;28;20471;-72
2021/09/15 10:31:52;;;;;;;57.83;2.30;;;20.30;60.90;;;;;;5019149;28;20519;-69
2021/09/15 10:34:51;;;;;;;57.87;2.60;;;20.60;50.30;;;;;;5016442;28;20482;-70
2021/09/15 10:37:56;;;;;;;57.50;2.30;;;20.80;30.00;;;;;;5012194;28;20509;-69
2021/09/15 10:40:40;;;;;;;57.93;2.77;;;20.90;21.20;;;;;;5013063;28;20463;-69
2021/09/15 10:43:41;;;;;;;57.87;2.93;;;21.00;19.10;;;;;;5013083;28;20472;-69
2021/09/15 10:46:23;;;;;;;57.97;2.43;;;21.10;13.30;;;;;;5012259;28;20456;-69
2021/09/15 10:49:19;;;;;;;57.57;2.50;;;21.20;6.20;;;;;;5012055;28;20962;-69
2021/09/15 10:51:47;;;;;;;58.17;3.07;;;21.30;1.00;;;;;;5012498;28;20445;-69
2021/09/15 10:54:43;;;;;;;58.50;2.70;;;21.20;1.00;;;;;;5012453;28;20579;-69
2021/09/15 10:57:14;;;;;;;57.87;2.60;;;21.00;1.00;;;;;;5010475;28;20850;-69
2021/09/15 10:59:49;;;;;;;57.67;2.47;;;20.90;1.00;;;;;;5012493;28;20454;-69
2021/09/15 11:02:27;;;;;;;57.67;2.80;;;20.80;1.00;;;;;;5012546;28;20539;-69
2021/09/15 11:04:55;;;;;;;58.00;2.80;;;20.80;1.00;;;;;;5012571;28;20528;-69
2021/09/15 11:08:00;;;;;;;59.10;3.10;;;20.70;1.00;;;;;;5011763;28;20475;-69
2021/09/15 11:10:40;;;;;;;58.10;2.70;;;20.70;1.00;;;;;;5011856;28;20462;-69
2021/09/15 11:13:08;;;;;;;57.77;2.63;;;20.70;1.00;;;;;;5011985;28;20541;-69
2021/09/15 11:15:36;;;;;;;58.37;2.50;;;20.70;1.00;;;;;;5011891;28;20449;-69
2021/09/15 11:18:04;;;;;;;58.20;3.17;;;20.70;1.00;;;;;;5012110;28;20555;-70
2021/09/15 11:20:33;;;;;;;57.57;2.40;;;20.80;1.00;;;;;;5011936;28;20461;-70
2021/09/15 11:23:04;;;;;;;57.50;2.57;;;20.80;1.00;;;;;;5012329;28;20529;-70
2021/09/15 11:25:30;;;;;;;58.20;2.50;;;20.80;1.00;;;;;;5012072;28;20456;-70
2021/09/15 11:28:10;;;;;;;58.07;2.60;;;20.80;1.00;;;;;;5011767;28;20556;-70
2021/09/15 11:30:39;;;;;;;58.03;2.70;;;20.80;1.00;;;;;;5008661;28;20551;-70
2021/09/15 11:33:06;;;;;;;58.03;2.33;;;20.90;1.00;;;;;;5011056;28;20467;-70
2021/09/15 11:35:34;;;;;;;58.53;3.00;;;21.00;1.00;;;;;;5011129;28;20449;-70
2021/09/15 11:38:02;;;;;;;57.67;2.43;;;21.00;1.00;;;;;;5010955;28;20473;-70
2021/09/15 11:40:31;;;;;;;58.27;2.80;;;21.10;1.00;;;;;;5011265;28;20452;-70
2021/09/15 11:43:02;;;;;;;58.27;2.90;;;21.10;1.00;;;;;;5010414;28;20556;-70
2021/09/15 11:45:31;;;;;;;57.77;2.50;;;21.20;1.00;;;;;;5011241;28;20452;-70
2021/09/15 11:47:58;;;;;;;58.50;3.00;;;21.30;1.00;;;;;;5011098;28;20502;-70
2021/09/15 11:50:28;;;;;;;57.80;2.53;;;21.40;1.00;;;;;;5010956;28;20964;-70
2021/09/15 11:52:59;;;;;;;58.00;2.50;;;21.40;1.00;;;;;;5010913;28;20457;-71
2021/09/15 11:55:28;;;;;;;57.97;2.30;;;21.40;1.00;;;;;;5011177;28;20502;-71
2021/09/15 11:57:59;;;;;;;58.07;2.40;;;21.20;1.00;;;;;;5011562;28;20489;-71
2021/09/15 12:00:27;;;;;;;58.60;3.00;;;21.20;1.00;;;;;;5010319;28;20454;-71
2021/09/15 12:02:57;;;;;;;58.20;2.70;;;21.20;1.00;;;;;;5011842;28;20552;-71
2021/09/15 12:05:24;;;;;;;58.17;2.30;;;21.10;1.00;;;;;;5011675;28;20446;-71
2021/09/15 12:07:51;;;;;;;57.60;2.70;;;21.10;1.00;;;;;;5011311;28;21112;-71
2021/09/15 12:10:19;;;;;;;58.30;3.00;;;21.00;1.00;;;;;;5010873;28;20486;-71
2021/09/15 12:12:46;;;;;;;57.93;2.60;;;20.90;1.00;;;;;;5010778;28;20533;-71
2021/09/15 12:15:13;;;;;;;57.90;2.87;;;20.90;1.00;;;;;;5011198;28;20482;-71
2021/09/15 12:17:41;;;;;;;58.37;2.70;;;20.90;1.00;;;;;;5011260;28;20561;-71
2021/09/15 12:20:10;;;;;;;59.17;3.10;;;21.00;1.00;;;;;;5011270;28;20452;-71
2021/09/15 12:22:37;;;;;;;58.90;3.03;;;21.00;1.00;;;;;;5011487;28;20475;-71
2021/09/15 12:25:09;;;;;;;58.17;2.90;;;21.00;1.00;;;;;;5011743;28;20730;-71
2021/09/15 12:27:36;;;;;;;58.23;2.50;;;21.10;1.00;;;;;;5010859;28;20474;-71
2021/09/15 12:30:06;;;;;;;57.90;2.20;;;21.20;1.00;;;;;;5010931;28;20493;-71
2021/09/15 12:32:36;;;;;;;58.33;2.57;;;21.10;1.00;;;;;;5009402;28;20525;-71
2021/09/15 12:35:04;;;;;;;58.30;2.70;;;21.10;1.00;;;;;;5011011;28;20485;-71
2021/09/15 12:37:39;;;;;;;57.77;2.50;;;21.10;1.00;;;;;;5010789;28;20476;-71
2021/09/15 12:40:07;;;;;;;58.20;2.80;;;21.00;1.00;;;;;;5011108;28;20445;-71
2021/09/15 12:42:36;;;;;;;57.43;2.40;;;21.00;1.00;;;;;;5011395;28;20533;-71
2021/09/15 12:45:07;;;;;;;57.97;2.67;;;21.10;1.00;;;;;;5011474;28;20867;-71
2021/09/15 12:47:36;;;;;;;58.60;2.70;;;21.10;1.00;;;;;;5010799;28;20846;-71
2021/09/15 12:50:13;;;;;;;59.10;3.20;;;21.20;1.00;;;;;;5011227;28;20545;-71
2021/09/15 12:52:42;;;;;;;58.50;2.53;;;21.40;1.00;;;;;;5010784;28;20461;-71
2021/09/15 12:55:18;;;;;;;58.17;3.10;;;21.50;1.00;;;;;;5014393;28;20485;-71
2021/09/15 12:57:56;;;;;;;58.37;2.50;;;21.50;1.00;;;;;;5014996;28;20902;-71